Time;durP1;ratioP1;P1;durP2;ratioP2;P2;SDS_P1;SDS_P2;PMS_P1;PMS_P2;Temp;Humidity;BMP_temperature;BMP_pressure;BME280_temperature;BME280_humidity;BME280_pressure;Samples;Min_cycle;Max_cycle;Signal;HPM_P1;HPM_P2
2024/04/08 00:00:48;;;;;;;6.68;3.22;;;16.80;1.00;;;;;;5397555;26;19996;-76
2024/04/08 00:03:13;;;;;;;6.25;3.97;;;16.80;1.00;;;;;;5397240;26;19992;-76
2024/04/08 00:05:39;;;;;;;7.60;3.78;;;16.70;1.00;;;;;;5361612;26;20003;-76
2024/04/08 00:08:05;;;;;;;7.43;3.78;;;16.70;1.00;;;;;;5362093;26;20004;-76
2024/04/08 00:10:30;;;;;;;6.72;3.90;;;16.70;1.00;;;;;;5361847;26;19996;-77
2024/04/08 00:12:56;;;;;;;8.10;4.10;;;16.70;1.00;;;;;;5327474;26;19997;-77
2024/04/08 00:15:21;;;;;;;6.25;4.13;;;16.70;1.00;;;;;;5327539;27;20189;-76
2024/04/08 00:17:47;;;;;;;7.03;3.70;;;16.70;1.00;;;;;;5327363;27;20334;-77
2024/04/08 00:20:13;;;;;;;5.18;4.00;;;16.70;1.00;;;;;;5327444;27;20067;-77
2024/04/08 00:22:39;;;;;;;5.47;3.80;;;16.70;1.00;;;;;;5327592;27;20006;-77
2024/04/08 00:25:07;;;;;;;6.28;4.30;;;16.70;1.00;;;;;;5361446;26;20017;-78
2024/04/08 00:27:33;;;;;;;7.15;3.92;;;16.60;1.00;;;;;;5361958;26;20132;-77
2024/04/08 00:29:58;;;;;;;7.22;4.10;;;16.60;1.00;;;;;;5361732;26;19993;-76
2024/04/08 00:32:24;;;;;;;7.13;4.45;;;16.60;1.00;;;;;;5362145;26;19993;-77
2024/04/08 00:34:49;;;;;;;7.63;4.63;;;16.60;1.00;;;;;;5311449;26;20008;-77
2024/04/08 00:37:15;;;;;;;7.22;4.50;;;16.50;1.00;;;;;;5318260;27;20007;-77
2024/04/08 00:39:40;;;;;;;8.30;4.72;;;16.50;11.10;;;;;;5327149;27;20071;-77
2024/04/08 00:42:06;;;;;;;6.32;4.28;;;16.50;13.80;;;;;;5378290;26;20106;-77
2024/04/08 00:44:32;;;;;;;6.25;4.07;;;16.50;24.60;;;;;;5396804;26;20382;-77
2024/04/08 00:46:59;;;;;;;6.07;4.22;;;16.50;25.20;;;;;;5397721;26;20008;-77
2024/04/08 00:49:27;;;;;;;7.40;4.35;;;16.50;21.60;;;;;;5361659;26;19996;-77
2024/04/08 00:51:54;;;;;;;6.65;4.28;;;16.50;32.90;;;;;;5361958;26;20025;-78
2024/04/08 00:54:19;;;;;;;7.30;4.50;;;16.50;27.80;;;;;;5362061;26;20464;-78
2024/04/08 00:56:45;;;;;;;7.82;4.28;;;16.50;20.20;;;;;;5404146;26;19991;-77
2024/04/08 00:59:14;;;;;;;6.78;4.47;;;16.50;12.90;;;;;;5381120;26;19992;-78
2024/04/08 01:01:40;;;;;;;5.43;4.28;;;16.50;23.90;;;;;;5381374;26;19996;-78
2024/04/08 01:04:06;;;;;;;6.30;4.38;;;16.50;28.40;;;;;;5381212;26;20093;-78
2024/04/08 01:06:32;;;;;;;6.55;4.00;;;16.50;42.90;;;;;;5382032;26;20055;-77
2024/04/08 01:08:59;;;;;;;7.18;4.60;;;16.50;55.60;;;;;;5381087;26;19996;-78
2024/04/08 01:11:25;;;;;;;9.40;4.53;;;16.40;62.30;;;;;;5381423;26;20351;-78
2024/04/08 01:13:51;;;;;;;7.10;4.47;;;16.40;90.10;;;;;;5311452;27;20361;-77
2024/04/08 01:16:18;;;;;;;7.38;4.50;;;16.40;97.30;;;;;;5311614;27;19998;-77
2024/04/08 01:18:43;;;;;;;10.90;5.15;;;16.40;99.90;;;;;;5346580;26;20029;-77
2024/04/08 01:21:09;;;;;;;11.18;4.53;;;16.40;99.90;;;;;;5374211;26;19993;-77
2024/04/08 01:23:38;;;;;;;7.43;4.50;;;16.40;99.90;;;;;;5381237;26;20001;-77
2024/04/08 01:26:04;;;;;;;6.68;4.40;;;16.40;99.90;;;;;;5381232;26;20434;-77
2024/04/08 01:28:29;;;;;;;5.88;4.50;;;16.40;99.90;;;;;;5345951;26;19989;-77
2024/04/08 01:30:55;;;;;;;7.40;4.97;;;16.40;99.90;;;;;;5346216;26;20007;-77
2024/04/08 01:33:21;;;;;;;7.60;4.43;;;16.40;99.90;;;;;;5346241;26;19997;-77
2024/04/08 01:35:47;;;;;;;6.90;4.65;;;16.30;99.90;;;;;;5346424;26;19997;-77
2024/04/08 01:38:12;;;;;;;9.57;4.80;;;16.20;99.90;;;;;;5345793;26;20007;-77
2024/04/08 01:40:38;;;;;;;8.75;5.45;;;16.10;99.90;;;;;;5319524;26;20004;-77
2024/04/08 01:43:04;;;;;;;7.80;5.15;;;16.00;99.90;;;;;;5311852;27;19997;-77
2024/04/08 01:45:29;;;;;;;8.60;5.05;;;15.80;99.90;;;;;;5371785;26;19988;-77
2024/04/08 01:47:55;;;;;;;9.25;5.00;;;15.80;99.90;;;;;;5381810;26;20047;-77
2024/04/08 01:50:20;;;;;;;8.25;5.50;;;15.70;99.90;;;;;;5407326;26;20007;-77
2024/04/08 01:52:46;;;;;;;6.97;5.00;;;15.70;99.90;;;;;;5416484;26;19999;-77
2024/04/08 01:55:11;;;;;;;8.13;5.35;;;15.70;99.90;;;;;;5416685;26;20131;-77
2024/04/08 01:57:37;;;;;;;7.15;5.50;;;15.60;99.90;;;;;;5416425;26;20369;-77
2024/04/08 02:00:04;;;;;;;7.85;5.13;;;15.60;99.90;;;;;;5441932;26;20076;-77
2024/04/08 02:02:30;;;;;;;9.00;5.40;;;15.60;99.90;;;;;;5452666;26;20040;-76
2024/04/08 02:04:55;;;;;;;7.55;5.50;;;15.50;1.00;;;;;;5380615;26;20004;-76
2024/04/08 02:07:21;;;;;;;9.52;5.53;;;15.50;1.00;;;;;;5380609;26;19992;-76
2024/04/08 02:09:46;;;;;;;8.00;5.10;;;15.50;1.00;;;;;;5380069;26;20457;-76
2024/04/08 02:12:12;;;;;;;8.40;5.38;;;15.40;1.00;;;;;;5380957;26;20023;-76
2024/04/08 02:14:37;;;;;;;9.07;5.20;;;15.50;1.00;;;;;;5380745;26;19996;-77
2024/04/08 02:17:03;;;;;;;10.18;5.40;;;15.60;1.00;;;;;;5380733;26;20041;-77
2024/04/08 02:19:28;;;;;;;9.75;5.53;;;15.60;1.00;;;;;;5380613;26;20420;-77
2024/04/08 02:21:54;;;;;;;8.80;5.60;;;15.50;1.00;;;;;;5380360;26;19996;-76
2024/04/08 02:24:19;;;;;;;6.75;5.13;;;15.50;1.00;;;;;;5380765;26;20007;-77
2024/04/08 02:26:45;;;;;;;8.63;5.60;;;15.40;1.00;;;;;;5380289;26;20011;-75
2024/04/08 02:29:11;;;;;;;9.15;5.97;;;15.30;1.00;;;;;;5380346;26;19989;-76
2024/04/08 02:31:36;;;;;;;10.27;5.82;;;15.20;1.00;;;;;;5380037;26;20002;-76
2024/04/08 02:34:02;;;;;;;8.00;5.82;;;15.10;1.00;;;;;;5380388;26;20003;-76
2024/04/08 02:36:28;;;;;;;9.85;6.00;;;15.10;1.00;;;;;;5380305;26;19996;-76
2024/04/08 02:38:54;;;;;;;7.30;5.82;;;15.00;1.00;;;;;;5380458;26;20007;-76
2024/04/08 02:41:20;;;;;;;9.90;6.55;;;15.00;1.00;;;;;;5405650;26;20002;-76
2024/04/08 02:43:45;;;;;;;6.70;5.78;;;15.00;1.00;;;;;;5451288;26;19991;-76
2024/04/08 02:46:11;;;;;;;8.55;6.47;;;15.00;1.00;;;;;;5451769;26;20019;-76
2024/04/08 02:48:38;;;;;;;8.80;6.45;;;14.90;1.00;;;;;;5451722;26;20008;-76
2024/04/08 02:51:06;;;;;;;8.35;5.78;;;14.90;1.00;;;;;;5451891;26;20005;-76
2024/04/08 02:53:33;;;;;;;7.97;6.20;;;14.80;1.00;;;;;;5415299;26;20007;-76
2024/04/08 02:56:04;;;;;;;8.20;6.25;;;14.70;8.00;;;;;;5415533;26;19995;-76
2024/04/08 02:58:30;;;;;;;9.15;6.47;;;14.70;18.20;;;;;;5415493;26;19996;-76
2024/04/08 03:00:55;;;;;;;9.52;6.75;;;14.60;30.70;;;;;;5415181;26;20529;-77
2024/04/08 03:03:21;;;;;;;9.35;6.68;;;14.60;40.40;;;;;;5415733;26;19991;-77
2024/04/08 03:05:46;;;;;;;10.65;6.97;;;14.50;54.10;;;;;;5379502;26;20142;-77
2024/04/08 03:08:12;;;;;;;10.35;7.22;;;14.40;81.70;;;;;;5379697;26;19993;-77
2024/04/08 03:10:37;;;;;;;10.88;7.25;;;14.50;89.70;;;;;;5379654;26;19992;-77
2024/04/08 03:13:03;;;;;;;12.43;7.20;;;14.40;93.90;;;;;;5379978;26;19992;-77
2024/04/08 03:15:29;;;;;;;11.20;6.85;;;14.40;95.90;;;;;;5223382;27;20011;-77
2024/04/08 03:17:54;;;;;;;9.07;7.07;;;14.40;99.90;;;;;;5209166;27;20415;-77
2024/04/08 03:20:20;;;;;;;10.50;7.30;;;14.40;99.90;;;;;;5208195;27;19996;-77
2024/04/08 03:22:45;;;;;;;8.77;6.70;;;14.40;99.90;;;;;;5209227;27;20027;-77
2024/04/08 03:25:11;;;;;;;10.07;7.32;;;14.40;99.90;;;;;;5200525;27;19996;-77
2024/04/08 03:27:38;;;;;;;9.48;7.00;;;14.30;99.90;;;;;;5208872;27;20051;-77
2024/04/08 03:30:04;;;;;;;10.60;7.05;;;14.30;99.90;;;;;;5209340;27;20070;-77
2024/04/08 03:32:29;;;;;;;11.70;7.40;;;14.20;99.90;;;;;;5209155;27;20003;-77
2024/04/08 03:34:55;;;;;;;8.88;7.20;;;14.20;99.90;;;;;;5209064;27;20006;-77
2024/04/08 03:37:26;;;;;;;10.50;7.32;;;14.20;99.90;;;;;;5208695;27;20003;-77
2024/04/08 03:39:52;;;;;;;10.70;6.78;;;14.20;99.90;;;;;;5260262;27;20009;-77
2024/04/08 03:42:21;;;;;;;10.25;6.70;;;14.20;99.90;;;;;;5278949;27;20002;-77
2024/04/08 03:44:49;;;;;;;9.60;6.90;;;14.30;99.90;;;;;;5309923;27;20034;-76
2024/04/08 03:47:15;;;;;;;10.82;7.05;;;14.30;99.90;;;;;;5435672;26;19990;-77
2024/04/08 03:49:41;;;;;;;9.20;6.53;;;14.30;99.90;;;;;;5450246;26;20001;-77
2024/04/08 03:52:06;;;;;;;8.70;6.95;;;14.20;99.90;;;;;;5450683;26;19999;-76
2024/04/08 03:54:32;;;;;;;11.90;7.10;;;14.30;99.90;;;;;;5450662;26;20438;-76
2024/04/08 03:56:58;;;;;;;8.88;6.75;;;14.30;99.90;;;;;;5480124;26;19990;-77
2024/04/08 03:59:23;;;;;;;9.05;6.65;;;14.30;99.90;;;;;;5486841;26;20345;-76
2024/04/08 04:01:49;;;;;;;9.88;6.93;;;14.30;99.90;;;;;;5486679;26;19998;-77
2024/04/08 04:04:14;;;;;;;8.40;6.50;;;14.30;99.90;;;;;;5486513;26;19997;-75
2024/04/08 04:06:40;;;;;;;7.63;6.60;;;14.40;99.90;;;;;;5486442;26;20044;-75
2024/04/08 04:09:05;;;;;;;7.78;5.88;;;14.40;92.90;;;;;;5486177;26;20105;-75
2024/04/08 04:11:32;;;;;;;11.45;6.20;;;14.50;78.20;;;;;;5486766;26;20013;-76
2024/04/08 04:13:57;;;;;;;9.32;6.30;;;14.50;58.60;;;;;;5486394;26;19994;-76
2024/04/08 04:16:23;;;;;;;9.93;6.72;;;14.60;39.80;;;;;;5449730;26;19991;-76
2024/04/08 04:18:52;;;;;;;9.32;6.18;;;14.60;26.60;;;;;;5352812;26;19997;-76
2024/04/08 04:21:17;;;;;;;7.68;5.78;;;14.60;24.60;;;;;;5378346;26;20007;-76
2024/04/08 04:23:43;;;;;;;11.05;5.93;;;14.70;12.50;;;;;;5378279;26;19992;-76
2024/04/08 04:26:08;;;;;;;6.57;5.15;;;14.70;1.00;;;;;;5342926;26;20039;-76
2024/04/08 04:28:34;;;;;;;9.88;5.28;;;14.80;1.00;;;;;;5343090;26;20001;-76
2024/04/08 04:30:59;;;;;;;9.25;5.70;;;14.90;1.00;;;;;;5343515;26;20467;-75
2024/04/08 04:33:25;;;;;;;8.32;5.72;;;15.00;1.00;;;;;;5312654;27;20001;-75
2024/04/08 04:35:58;;;;;;;8.27;6.13;;;15.10;1.00;;;;;;5312537;27;20413;-76
2024/04/08 04:38:24;;;;;;;9.13;5.82;;;15.20;1.00;;;;;;5312057;27;20009;-77
2024/04/08 04:41:00;;;;;;;8.55;5.18;;;15.20;1.00;;;;;;5312446;27;19993;-77
2024/04/08 04:43:26;;;;;;;12.07;5.00;;;15.40;99.90;;;;;;5312763;27;20004;-76
2024/04/08 04:45:51;;;;;;;8.07;5.22;;;15.50;99.90;;;;;;5312352;27;20027;-76
2024/04/08 04:48:17;;;;;;;9.38;5.90;;;15.60;99.90;;;;;;5341978;26;20008;-77
2024/04/08 04:50:42;;;;;;;9.35;5.20;;;15.70;99.90;;;;;;5346945;26;20436;-77
2024/04/08 04:53:08;;;;;;;9.48;5.28;;;15.70;99.90;;;;;;5375782;26;20008;-77
2024/04/08 04:55:33;;;;;;;9.93;5.43;;;15.70;99.90;;;;;;5381562;26;20050;-76
2024/04/08 04:57:59;;;;;;;14.63;6.03;;;15.70;99.90;;;;;;5381590;26;20003;-76
2024/04/08 05:00:26;;;;;;;10.13;5.80;;;16.00;99.90;;;;;;5382101;26;20069;-76
2024/04/08 05:02:52;;;;;;;11.00;6.65;;;16.50;23.10;;;;;;5382070;26;20007;-75
2024/04/08 05:05:18;;;;;;;11.20;5.95;;;17.00;1.00;;;;;;5414281;26;20002;-76
2024/04/08 05:07:43;;;;;;;9.73;5.43;;;17.60;99.90;;;;;;5420285;26;19996;-76
2024/04/08 05:10:09;;;;;;;8.95;5.35;;;17.40;99.90;;;;;;5420131;26;20327;-76
2024/04/08 05:12:34;;;;;;;8.70;4.63;;;17.30;99.90;;;;;;5420098;26;20414;-76
2024/04/08 05:15:00;;;;;;;11.85;5.13;;;17.10;99.90;;;;;;5452668;26;20426;-76
2024/04/08 05:17:26;;;;;;;10.07;4.93;;;17.00;99.90;;;;;;5452873;26;19991;-76
2024/04/08 05:19:52;;;;;;;10.30;4.47;;;17.00;99.90;;;;;;5452723;26;20315;-75
2024/04/08 05:22:19;;;;;;;8.48;4.38;;;17.10;99.90;;;;;;5452477;26;20044;-76
2024/04/08 05:24:45;;;;;;;11.70;4.90;;;17.60;99.90;;;;;;5452347;26;20423;-77
2024/04/08 05:27:10;;;;;;;10.00;4.53;;;17.90;99.90;;;;;;5416132;26;20070;-77
2024/04/08 05:29:36;;;;;;;11.07;5.00;;;18.10;94.60;;;;;;5416430;26;20455;-77
2024/04/08 05:32:02;;;;;;;8.13;4.35;;;18.00;39.80;;;;;;5345833;26;20003;-76
2024/04/08 05:34:27;;;;;;;7.10;4.45;;;18.20;13.90;;;;;;5346036;26;20179;-76
2024/04/08 05:36:53;;;;;;;10.15;4.00;;;18.10;1.00;;;;;;5345666;26;19993;-76
2024/04/08 05:39:19;;;;;;;9.35;3.92;;;18.40;1.00;;;;;;5345737;26;20004;-76
2024/04/08 05:41:44;;;;;;;9.05;3.83;;;18.70;1.00;;;;;;5345213;26;20063;-76
2024/04/08 05:44:10;;;;;;;8.88;3.63;;;18.90;99.90;;;;;;5345257;26;19993;-77
2024/04/08 05:46:35;;;;;;;7.88;4.00;;;18.90;99.90;;;;;;5295478;26;20046;-77
2024/04/08 05:49:01;;;;;;;6.10;3.22;;;19.30;99.90;;;;;;5276951;27;19998;-76
2024/04/08 05:51:26;;;;;;;5.90;3.13;;;19.40;99.90;;;;;;5277017;27;19994;-79
2024/04/08 05:53:52;;;;;;;8.45;3.42;;;19.00;99.90;;;;;;5276704;27;20005;-79
2024/04/08 05:56:19;;;;;;;8.13;3.20;;;19.60;99.90;;;;;;5277059;27;20054;-79
2024/04/08 05:58:45;;;;;;;5.75;2.65;;;20.80;72.60;;;;;;5301446;27;19998;-79
2024/04/08 06:01:10;;;;;;;5.72;3.08;;;21.80;1.00;;;;;;5311369;27;19993;-78
2024/04/08 06:03:36;;;;;;;5.38;3.10;;;22.30;1.00;;;;;;5362015;26;20000;-79
2024/04/08 06:06:06;;;;;;;6.22;2.75;;;23.30;99.90;;;;;;5396311;26;20028;-79
2024/04/08 06:08:32;;;;;;;6.40;3.03;;;23.90;70.10;;;;;;5345421;26;19993;-80
2024/04/08 06:11:04;;;;;;;5.78;2.60;;;23.60;1.00;;;;;;5276852;27;20355;-79
2024/04/08 06:13:30;;;;;;;6.80;3.92;;;23.10;1.00;;;;;;5243614;27;20451;-80
2024/04/08 06:15:57;;;;;;;6.40;3.08;;;23.40;1.00;;;;;;5242806;27;20003;-81
2024/04/08 06:18:22;;;;;;;5.28;2.80;;;23.90;99.90;;;;;;5243174;27;19999;-81
2024/04/08 06:20:55;;;;;;;5.25;2.40;;;23.60;99.90;;;;;;5243214;27;20010;-81
2024/04/08 06:23:21;;;;;;;9.27;2.75;;;24.40;99.90;;;;;;5243467;27;20003;-80
2024/04/08 06:25:47;;;;;;;4.40;2.50;;;24.00;99.90;;;;;;5209611;27;20010;-81
2024/04/08 06:28:12;;;;;;;4.88;2.67;;;24.10;99.90;;;;;;5210366;27;19999;-78
2024/04/08 06:30:38;;;;;;;3.95;2.50;;;24.20;99.90;;;;;;5242793;27;19999;-76
2024/04/08 06:33:03;;;;;;;6.10;2.50;;;23.80;99.90;;;;;;5243165;27;20046;-77
2024/04/08 06:35:29;;;;;;;5.65;2.50;;;26.10;99.90;;;;;;5276293;27;20441;-78
2024/04/08 06:37:54;;;;;;;4.32;2.40;;;26.20;99.90;;;;;;5305521;27;19993;-78
2024/04/08 06:40:20;;;;;;;4.68;2.83;;;26.90;99.90;;;;;;5311045;26;20068;-79
2024/04/08 06:42:45;;;;;;;4.30;2.30;;;27.70;99.90;;;;;;5310772;27;20313;-79
2024/04/08 06:45:11;;;;;;;5.32;2.53;;;27.30;71.90;;;;;;5286168;26;20197;-78
2024/04/08 06:47:36;;;;;;;4.85;3.20;;;27.50;41.10;;;;;;5350024;26;19992;-79
2024/04/08 06:50:02;;;;;;;5.57;2.50;;;27.70;30.00;;;;;;5383376;26;20015;-80
2024/04/08 06:52:27;;;;;;;4.22;2.47;;;27.50;30.60;;;;;;5415080;26;19995;-79
2024/04/08 06:54:53;;;;;;;4.07;2.40;;;28.50;1.00;;;;;;5414037;26;19991;-80
2024/04/08 06:57:18;;;;;;;6.05;2.17;;;28.80;1.00;;;;;;5379948;26;19988;-80
2024/04/08 06:59:44;;;;;;;31.80;23.02;;;29.30;1.00;;;;;;5379816;26;19992;-82
2024/04/08 07:02:11;;;;;;;7.72;2.88;;;27.60;1.00;;;;;;5355364;26;20000;-82
2024/04/08 07:04:36;;;;;;;5.22;2.38;;;27.30;1.00;;;;;;5344263;26;20417;-81
2024/04/08 07:07:02;;;;;;;5.18;2.30;;;27.90;1.00;;;;;;5379882;26;20042;-83
2024/04/08 07:09:29;;;;;;;4.35;2.33;;;26.50;1.00;;;;;;5309922;27;20001;-82
2024/04/08 07:11:58;;;;;;;3.95;2.17;;;26.20;1.00;;;;;;5310491;27;20008;-79
2024/04/08 07:14:25;;;;;;;9.23;1.98;;;25.00;1.00;;;;;;5310331;27;20382;-79
2024/04/08 07:16:50;;;;;;;4.10;1.90;;;26.10;1.00;;;;;;5336051;26;20035;-79
2024/04/08 07:19:16;;;;;;;6.25;2.20;;;27.70;1.00;;;;;;5344816;26;20000;-82
2024/04/08 07:21:41;;;;;;;5.20;2.50;;;26.60;1.00;;;;;;5344784;26;19993;-80
2024/04/08 07:24:07;;;;;;;7.03;2.53;;;25.50;1.00;;;;;;5344475;26;20058;-81
2024/04/08 07:26:33;;;;;;;5.72;2.30;;;24.80;1.00;;;;;;5309814;27;20068;-80
2024/04/08 07:28:59;;;;;;;9.07;2.60;;;24.20;1.00;;;;;;5310433;27;20005;-80
2024/04/08 07:31:24;;;;;;;9.70;2.72;;;26.60;1.00;;;;;;5309777;27;20449;-81
2024/04/08 07:33:50;;;;;;;4.70;2.50;;;27.40;1.00;;;;;;5344110;26;20003;-82
2024/04/08 07:36:15;;;;;;;4.30;2.40;;;28.20;1.00;;;;;;5344339;26;19993;-82
2024/04/08 07:38:41;;;;;;;4.85;2.50;;;27.70;1.00;;;;;;5293153;26;20009;-83
2024/04/08 07:41:06;;;;;;;6.57;2.90;;;28.10;1.00;;;;;;5353479;26;19992;-82
2024/04/08 07:43:33;;;;;;;3.75;2.28;;;27.30;1.00;;;;;;5379406;26;20456;-79
2024/04/08 07:45:58;;;;;;;4.55;2.53;;;29.10;1.00;;;;;;5379214;26;20434;-76
2024/04/08 07:48:24;;;;;;;7.95;2.25;;;28.60;1.00;;;;;;5344084;26;19993;-75
2024/04/08 07:50:51;;;;;;;4.05;2.03;;;30.10;1.00;;;;;;5343964;26;20008;-76
2024/04/08 07:53:17;;;;;;;5.53;1.95;;;31.00;1.00;;;;;;5343798;26;20003;-75
2024/04/08 07:55:44;;;;;;;5.32;2.00;;;32.90;1.00;;;;;;5343990;26;20000;-75
2024/04/08 07:58:09;;;;;;;3.85;2.13;;;32.50;1.00;;;;;;5292529;26;20009;-76
2024/04/08 08:00:35;;;;;;;8.98;2.50;;;32.60;1.00;;;;;;5274784;27;19994;-79
2024/04/08 08:03:02;;;;;;;4.25;2.20;;;32.70;1.00;;;;;;5275000;27;19991;-78
2024/04/08 08:05:27;;;;;;;3.70;2.05;;;32.60;1.00;;;;;;5327335;26;20468;-82
2024/04/08 08:07:53;;;;;;;4.75;2.40;;;31.60;1.00;;;;;;5278289;27;20001;-77
2024/04/08 08:10:19;;;;;;;4.50;2.05;;;31.90;1.00;;;;;;5278276;27;19998;-79
2024/04/08 08:12:44;;;;;;;2.97;2.15;;;32.40;1.00;;;;;;5278284;27;20002;-78
2024/04/08 08:15:10;;;;;;;5.13;2.20;;;34.10;1.00;;;;;;5278238;27;20073;-76
2024/04/08 08:17:36;;;;;;;5.60;2.10;;;34.10;1.00;;;;;;5278469;27;20072;-75
2024/04/08 08:20:04;;;;;;;4.50;2.30;;;34.30;1.00;;;;;;5294627;27;20001;-79
2024/04/08 08:22:30;;;;;;;8.98;7.30;;;35.60;1.00;;;;;;5311556;27;20008;-78
2024/04/08 08:24:56;;;;;;;7.63;3.72;;;33.50;1.00;;;;;;5312050;27;19994;-76
2024/04/08 08:27:21;;;;;;;9.75;2.63;;;32.00;1.00;;;;;;5312696;27;20010;-80
2024/04/08 08:29:52;;;;;;;4.68;2.13;;;31.30;1.00;;;;;;5337403;26;19993;-78
2024/04/08 08:32:18;;;;;;;4.10;2.28;;;34.10;1.00;;;;;;5312131;27;20001;-79
2024/04/08 08:34:44;;;;;;;8.70;2.42;;;31.80;1.00;;;;;;5311852;27;19993;-80
2024/04/08 08:37:09;;;;;;;10.40;2.50;;;31.70;1.00;;;;;;5277787;27;20069;-79
2024/04/08 08:39:37;;;;;;;5.18;2.47;;;32.70;1.00;;;;;;5277810;27;20010;-80
2024/04/08 08:42:06;;;;;;;6.05;2.33;;;32.50;1.00;;;;;;5311801;27;20063;-84
2024/04/08 08:44:33;;;;;;;3.85;1.80;;;33.50;1.00;;;;;;5339487;26;20345;-79
2024/04/08 08:46:59;;;;;;;2.75;2.05;;;34.90;1.00;;;;;;5346818;26;20008;-81
2024/04/08 08:49:28;;;;;;;12.13;2.95;;;35.30;1.00;;;;;;5346594;26;20027;-82
2024/04/08 08:51:54;;;;;;;4.68;2.22;;;34.70;1.00;;;;;;5340682;26;20000;-84
2024/04/08 08:54:20;;;;;;;5.28;2.53;;;33.30;1.00;;;;;;5311698;27;20045;-82
2024/04/08 08:56:46;;;;;;;10.50;2.53;;;34.50;1.00;;;;;;5277667;27;19998;-83
2024/04/08 08:59:14;;;;;;;5.03;2.08;;;33.00;1.00;;;;;;5277509;27;20461;-83
2024/04/08 09:01:41;;;;;;;5.05;2.33;;;32.60;1.00;;;;;;5277958;27;20072;-82
2024/04/08 09:04:07;;;;;;;4.68;2.15;;;35.00;1.00;;;;;;5237608;27;20030;-85
2024/04/08 09:06:33;;;;;;;5.43;2.00;;;36.40;1.00;;;;;;5244511;27;19995;-81
2024/04/08 09:08:59;;;;;;;4.72;2.28;;;34.80;1.00;;;;;;5190109;27;20012;-81
2024/04/08 09:11:25;;;;;;;3.15;1.77;;;36.30;1.00;;;;;;5178286;27;20077;-80
2024/04/08 09:13:50;;;;;;;5.18;2.10;;;32.80;1.00;;;;;;5126003;27;20002;-85
2024/04/08 09:16:22;;;;;;;5.55;2.10;;;35.70;1.00;;;;;;5144769;27;19993;-84
2024/04/08 09:18:48;;;;;;;3.08;1.88;;;35.20;1.00;;;;;;5144402;27;19997;-84
2024/04/08 09:21:13;;;;;;;2.85;2.00;;;34.00;99.90;;;;;;5171591;27;20474;-82
2024/04/08 09:23:42;;;;;;;3.65;2.10;;;35.20;99.90;;;;;;5177344;27;20001;-83
2024/04/08 09:26:08;;;;;;;6.18;2.40;;;34.40;99.90;;;;;;5177840;27;20011;-82
2024/04/08 09:28:35;;;;;;;11.40;3.25;;;31.60;99.90;;;;;;5204003;27;20011;-83
2024/04/08 09:31:01;;;;;;;5.20;2.38;;;33.80;99.90;;;;;;5231000;27;20467;-81
2024/04/08 09:33:27;;;;;;;3.85;2.10;;;34.70;99.90;;;;;;5277121;27;20559;-80
2024/04/08 09:35:55;;;;;;;9.13;2.50;;;36.50;99.90;;;;;;5311546;27;20006;-75
2024/04/08 09:38:22;;;;;;;9.60;2.63;;;35.50;99.90;;;;;;5311052;27;20001;-74
2024/04/08 09:40:49;;;;;;;4.03;1.95;;;34.90;99.90;;;;;;5311381;27;19989;-75
2024/04/08 09:43:15;;;;;;;13.50;9.90;;;34.40;99.90;;;;;;5309071;27;19990;-76
2024/04/08 09:45:42;;;;;;;6.70;3.33;;;35.00;99.90;;;;;;5276040;27;20001;-75
2024/04/08 09:48:13;;;;;;;7.97;2.90;;;35.00;99.90;;;;;;5276995;27;20018;-76
2024/04/08 09:50:41;;;;;;;9.07;2.10;;;33.50;99.90;;;;;;5277645;27;19998;-75
2024/04/08 09:53:07;;;;;;;4.22;2.10;;;30.80;1.00;;;;;;5276522;27;20022;-75
2024/04/08 09:55:37;;;;;;;9.75;2.42;;;33.30;99.90;;;;;;5248076;27;19991;-76
2024/04/08 09:58:08;;;;;;;7.95;1.88;;;35.00;1.00;;;;;;5243656;27;19995;-75
2024/04/08 10:00:35;;;;;;;6.68;2.20;;;33.70;99.90;;;;;;5243396;27;20007;-76
2024/04/08 10:03:10;;;;;;;23.35;16.13;;;34.80;1.00;;;;;;5213666;27;20006;-75
2024/04/08 10:05:35;;;;;;;7.20;3.60;;;34.20;1.00;;;;;;5211381;27;20340;-76
2024/04/08 10:08:02;;;;;;;10.75;2.60;;;33.90;1.00;;;;;;5209444;27;19992;-75
2024/04/08 10:10:29;;;;;;;5.32;2.10;;;33.00;1.00;;;;;;5209484;27;20006;-76
2024/04/08 10:12:58;;;;;;;4.75;2.22;;;32.80;99.90;;;;;;5250984;27;19998;-75
2024/04/08 10:15:31;;;;;;;5.50;2.00;;;35.60;99.90;;;;;;5276522;27;19994;-75
2024/04/08 10:17:56;;;;;;;4.05;1.85;;;35.40;99.90;;;;;;5310757;27;19994;-76
2024/04/08 10:20:23;;;;;;;5.93;2.10;;;33.70;99.90;;;;;;5310985;27;20008;-76
2024/04/08 10:22:49;;;;;;;8.13;3.95;;;33.30;99.90;;;;;;5310658;27;20005;-76
2024/04/08 10:25:38;;;;;;;3.80;1.90;;;33.80;99.90;;;;;;5310324;27;19997;-75
2024/04/08 10:28:15;;;;;;;4.32;2.10;;;32.60;99.90;;;;;;5276094;27;20457;-75
2024/04/08 10:30:50;;;;;;;6.05;1.92;;;30.60;99.90;;;;;;5275652;27;20145;-76
2024/04/08 10:33:16;;;;;;;5.50;2.03;;;29.70;99.90;;;;;;5276541;27;20050;-75
2024/04/08 10:35:42;;;;;;;4.57;1.55;;;30.30;99.90;;;;;;5205653;27;20463;-76
2024/04/08 10:38:08;;;;;;;6.15;1.85;;;30.30;99.90;;;;;;5245730;27;19991;-75
2024/04/08 10:40:34;;;;;;;3.38;1.60;;;30.30;99.90;;;;;;5279975;27;19994;-76
2024/04/08 10:42:59;;;;;;;4.30;1.50;;;30.20;99.90;;;;;;5310562;27;20326;-76
2024/04/08 10:45:26;;;;;;;3.10;1.70;;;30.10;99.90;;;;;;5278342;27;19994;-76
2024/04/08 10:48:00;;;;;;;4.03;1.88;;;30.40;99.90;;;;;;5310697;27;19994;-77
2024/04/08 10:50:29;;;;;;;3.20;1.40;;;29.20;99.90;;;;;;5310493;27;19997;-77
2024/04/08 10:52:55;;;;;;;7.00;2.33;;;28.80;99.90;;;;;;5242433;27;20136;-77
2024/04/08 10:55:21;;;;;;;12.48;8.52;;;29.20;99.90;;;;;;5242656;27;19999;-77
2024/04/08 10:57:47;;;;;;;5.45;2.10;;;28.90;99.90;;;;;;5209177;27;19995;-77
2024/04/08 11:00:13;;;;;;;7.07;2.33;;;30.00;99.90;;;;;;5209525;27;20000;-77
2024/04/08 11:02:40;;;;;;;10.15;1.90;;;29.40;99.90;;;;;;5209365;27;19995;-77
2024/04/08 11:05:06;;;;;;;7.88;1.90;;;28.70;99.90;;;;;;5209104;27;20018;-77
2024/04/08 11:07:38;;;;;;;5.40;1.80;;;29.40;99.90;;;;;;5150112;27;20004;-77
2024/04/08 11:10:13;;;;;;;7.63;1.88;;;29.40;99.90;;;;;;5116715;27;20002;-77
2024/04/08 11:12:39;;;;;;;4.53;1.50;;;29.80;99.90;;;;;;5112012;28;20504;-77
2024/04/08 11:15:06;;;;;;;7.72;1.55;;;29.50;99.90;;;;;;5142011;27;19993;-77
2024/04/08 11:17:33;;;;;;;4.90;1.88;;;30.00;99.90;;;;;;5143770;27;19997;-77
2024/04/08 11:20:00;;;;;;;4.20;1.88;;;30.60;99.90;;;;;;5143273;27;20016;-77
2024/04/08 11:22:26;;;;;;;4.65;1.63;;;29.50;99.90;;;;;;5172940;27;20005;-77
2024/04/08 11:24:52;;;;;;;6.43;2.00;;;29.60;99.90;;;;;;5175980;27;20469;-77
2024/04/08 11:27:18;;;;;;;6.05;1.48;;;29.10;99.90;;;;;;5176285;27;20001;-77
2024/04/08 11:29:46;;;;;;;19.00;2.00;;;30.30;99.90;;;;;;5154646;27;20056;-77
2024/04/08 11:32:13;;;;;;;4.80;1.83;;;30.60;99.90;;;;;;5176194;27;20566;-76
2024/04/08 11:34:42;;;;;;;6.70;1.70;;;30.80;99.90;;;;;;5205229;27;20447;-77
2024/04/08 11:37:10;;;;;;;6.20;1.63;;;30.50;99.90;;;;;;5208858;27;20078;-77
2024/04/08 11:39:40;;;;;;;4.88;1.63;;;31.00;99.90;;;;;;5238907;27;19999;-77
2024/04/08 11:42:07;;;;;;;6.65;1.73;;;30.90;99.90;;;;;;5242601;27;20014;-77
2024/04/08 11:44:40;;;;;;;5.05;1.60;;;31.00;99.90;;;;;;5207909;27;20511;-77
2024/04/08 11:47:06;;;;;;;4.60;1.40;;;30.50;99.90;;;;;;5209532;27;19996;-77
2024/04/08 11:49:32;;;;;;;5.30;1.63;;;30.70;99.90;;;;;;5276505;27;19997;-77
2024/04/08 11:51:57;;;;;;;5.32;1.90;;;30.00;99.90;;;;;;5340385;26;20070;-77
2024/04/08 11:54:24;;;;;;;4.32;1.50;;;29.40;99.90;;;;;;5344050;26;20005;-77
2024/04/08 11:56:49;;;;;;;4.20;1.40;;;29.40;99.90;;;;;;5344112;26;20071;-76
2024/04/08 11:59:15;;;;;;;5.75;1.50;;;30.00;99.90;;;;;;5343949;26;20004;-77
2024/04/08 12:01:42;;;;;;;5.00;1.50;;;30.20;99.90;;;;;;5344310;26;19996;-77
2024/04/08 12:04:07;;;;;;;6.00;1.40;;;30.40;99.90;;;;;;5275017;27;20322;-76
2024/04/08 12:06:33;;;;;;;6.05;1.20;;;30.50;99.90;;;;;;5275361;27;19998;-76
2024/04/08 12:08:59;;;;;;;5.03;1.50;;;30.10;99.90;;;;;;5241338;27;19991;-77
2024/04/08 12:11:24;;;;;;;3.97;1.60;;;30.20;99.90;;;;;;5274961;27;20002;-76
2024/04/08 12:13:52;;;;;;;3.75;1.40;;;30.50;99.90;;;;;;5275376;27;19998;-76
2024/04/08 12:16:18;;;;;;;4.65;1.80;;;30.40;99.90;;;;;;5329904;26;20428;-76
2024/04/08 12:18:44;;;;;;;4.68;1.50;;;30.40;99.90;;;;;;5343885;26;19997;-77
2024/04/08 12:21:10;;;;;;;4.80;1.55;;;30.30;99.90;;;;;;5343864;26;19996;-77
2024/04/08 12:23:36;;;;;;;2.75;1.23;;;30.20;99.90;;;;;;5318787;26;20494;-77
2024/04/08 12:26:02;;;;;;;3.03;1.33;;;30.20;99.90;;;;;;5308869;27;20004;-77
2024/04/08 12:28:28;;;;;;;4.93;1.50;;;30.50;99.90;;;;;;5309539;27;20011;-77
2024/04/08 12:30:53;;;;;;;6.00;1.30;;;30.10;99.90;;;;;;5343403;26;19993;-77
2024/04/08 12:33:19;;;;;;;5.93;1.70;;;30.20;99.90;;;;;;5378410;26;19992;-77
2024/04/08 12:35:45;;;;;;;4.50;1.45;;;29.00;99.90;;;;;;5283946;27;20001;-76
2024/04/08 12:38:13;;;;;;;6.85;1.85;;;29.40;99.90;;;;;;5308964;27;19994;-77
2024/04/08 12:40:38;;;;;;;12.15;1.95;;;29.20;99.90;;;;;;5334826;26;20391;-77
2024/04/08 12:43:04;;;;;;;5.85;1.38;;;29.70;99.90;;;;;;5317686;26;20006;-77
2024/04/08 12:45:30;;;;;;;3.75;1.45;;;30.00;99.90;;;;;;5308520;27;20465;-77